createdAt,value
2023-01-13T00:01:29.274Z,6.97
2023-01-13T00:03:57.167Z,6.55
2023-01-13T00:06:29.502Z,7.13
2023-01-13T00:08:57.860Z,5.05
2023-01-13T00:11:27.566Z,6.63
2023-01-13T00:13:54.765Z,6.28
2023-01-13T00:16:21.981Z,6.18
2023-01-13T00:18:51.382Z,5.68
2023-01-13T00:21:20.683Z,5.85
2023-01-13T00:23:48.458Z,7.03
2023-01-13T00:26:27.145Z,5.70
2023-01-13T00:28:59.989Z,5.70
2023-01-13T00:31:29.006Z,6.40
2023-01-13T00:34:02.531Z,6.18
2023-01-13T00:36:30.899Z,6.75
2023-01-13T00:38:58.675Z,6.35
2023-01-13T00:41:26.992Z,7.53
2023-01-13T00:43:54.153Z,6.25
2023-01-13T00:46:22.239Z,7.05
2023-01-13T00:48:49.951Z,7.07
2023-01-13T00:51:18.958Z,5.72
2023-01-13T00:53:48.856Z,6.32
2023-01-13T00:56:22.106Z,5.10
2023-01-13T00:58:56.619Z,7.03
2023-01-13T01:01:24.892Z,7.07
2023-01-13T01:03:53.767Z,5.43
2023-01-13T01:06:25.958Z,6.78
2023-01-13T01:08:54.600Z,6.35
2023-01-13T01:11:27.507Z,5.72
2023-01-13T01:13:56.293Z,5.43
2023-01-13T01:16:25.609Z,6.80
2023-01-13T01:18:54.700Z,5.45
2023-01-13T01:21:23.765Z,6.50
2023-01-13T01:23:50.932Z,5.38
2023-01-13T01:26:21.188Z,5.88
2023-01-13T01:28:49.351Z,5.35
2023-01-13T01:31:19.701Z,6.43
2023-01-13T01:33:47.755Z,5.38
2023-01-13T01:36:17.218Z,6.07
2023-01-13T01:38:45.188Z,6.10
2023-01-13T01:41:24.477Z,7.20
2023-01-13T01:44:00.315Z,6.55
2023-01-13T01:46:38.515Z,6.55
2023-01-13T01:49:32.568Z,6.95
2023-01-13T01:52:04.533Z,6.05
2023-01-13T01:54:47.152Z,6.60
2023-01-13T01:57:20.231Z,6.93
2023-01-13T01:59:47.443Z,3.40
2023-01-13T02:02:14.620Z,6.30
2023-01-13T02:04:51.199Z,6.35
2023-01-13T02:07:25.488Z,5.45
2023-01-13T02:09:55.937Z,6.50
2023-01-13T02:12:29.841Z,7.07
2023-01-13T02:15:05.418Z,4.97
2023-01-13T02:17:48.041Z,5.05
2023-01-13T02:20:36.707Z,7.60
2023-01-13T02:23:44.160Z,5.85
2023-01-13T02:26:35.738Z,6.15
2023-01-13T02:29:40.252Z,5.47
2023-01-13T02:32:22.021Z,7.72
2023-01-13T02:35:06.825Z,6.95
2023-01-13T02:37:37.876Z,5.15
2023-01-13T02:40:22.745Z,6.65
2023-01-13T02:43:16.867Z,6.32
2023-01-13T02:45:56.101Z,5.47
2023-01-13T02:48:24.949Z,5.20
2023-01-13T02:51:00.315Z,7.03
2023-01-13T02:53:34.538Z,5.13
2023-01-13T02:56:05.476Z,6.78
2023-01-13T02:58:36.361Z,6.85
2023-01-13T03:01:03.819Z,4.65
2023-01-13T03:03:32.239Z,6.47
2023-01-13T03:06:23.803Z,5.68
2023-01-13T03:08:56.587Z,6.50
2023-01-13T03:11:28.774Z,5.43
2023-01-13T03:14:14.591Z,6.13
2023-01-13T03:17:10.468Z,5.13
2023-01-13T03:19:55.921Z,6.47
2023-01-13T03:22:33.998Z,6.82
2023-01-13T03:25:16.129Z,5.15
2023-01-13T03:27:55.912Z,5.60
2023-01-13T03:30:26.153Z,4.20
2023-01-13T03:33:01.097Z,5.10
2023-01-13T03:35:33.089Z,4.88
2023-01-13T03:38:06.491Z,5.72
2023-01-13T03:40:40.527Z,5.30
2023-01-13T03:43:30.798Z,4.45
2023-01-13T03:46:03.716Z,5.35
2023-01-13T03:48:34.619Z,5.60
2023-01-13T03:51:17.137Z,4.90
2023-01-13T03:53:50.203Z,4.32
2023-01-13T03:56:30.084Z,4.03
2023-01-13T03:59:00.860Z,5.50
2023-01-13T04:01:59.257Z,4.57
2023-01-13T04:04:32.570Z,3.85
2023-01-13T04:09:41.745Z,5.38
2023-01-13T04:12:17.852Z,4.43
2023-01-13T04:14:46.372Z,4.30
2023-01-13T04:17:13.788Z,5.03
2023-01-13T04:19:40.921Z,5.30
2023-01-13T04:22:08.114Z,4.47
2023-01-13T04:24:35.123Z,6.32
2023-01-13T04:27:02.214Z,6.00
2023-01-13T04:29:29.358Z,5.47
2023-01-13T04:31:56.377Z,5.90
2023-01-13T04:34:23.474Z,5.50
2023-01-13T04:36:50.520Z,6.43
2023-01-13T04:39:18.203Z,5.90
2023-01-13T04:42:02.480Z,4.47
2023-01-13T04:44:35.425Z,4.65
2023-01-13T04:47:03.070Z,4.75
2023-01-13T04:49:30.242Z,5.63
2023-01-13T04:51:57.394Z,4.88
2023-01-13T04:54:24.337Z,5.03
2023-01-13T04:56:51.407Z,5.15
2023-01-13T04:59:18.545Z,5.65
2023-01-13T05:01:45.826Z,4.70
2023-01-13T05:04:15.571Z,4.38
2023-01-13T05:06:42.906Z,5.32
2023-01-13T05:09:12.501Z,4.53
2023-01-13T05:11:58.662Z,5.35
2023-01-13T05:14:44.737Z,5.70
2023-01-13T05:17:20.414Z,5.78
2023-01-13T05:19:47.840Z,5.22
2023-01-13T05:22:33.341Z,5.65
2023-01-13T05:25:18.926Z,4.63
2023-01-13T05:27:46.059Z,5.65
2023-01-13T05:30:13.296Z,5.00
2023-01-13T05:32:40.381Z,5.13
2023-01-13T05:35:07.936Z,5.85
2023-01-13T05:37:35.126Z,5.55
2023-01-13T05:40:21.277Z,5.95
2023-01-13T05:43:06.650Z,5.88
2023-01-13T05:45:33.680Z,5.05
2023-01-13T05:48:00.732Z,4.15
2023-01-13T05:50:27.783Z,6.22
2023-01-13T05:52:54.810Z,4.55
2023-01-13T05:55:21.877Z,4.60
2023-01-13T05:57:48.985Z,5.25
2023-01-13T06:00:16.649Z,4.80
2023-01-13T06:02:43.774Z,4.35
2023-01-13T06:05:10.792Z,3.88
2023-01-13T06:07:37.804Z,4.53
2023-01-13T06:10:05.336Z,4.03
2023-01-13T06:12:32.587Z,4.95
2023-01-13T06:14:59.796Z,4.75
2023-01-13T06:17:26.811Z,4.60
2023-01-13T06:19:56.346Z,5.22
2023-01-13T06:22:33.066Z,4.82
2023-01-13T06:25:00.179Z,5.00
2023-01-13T06:27:30.004Z,3.92
2023-01-13T06:29:59.530Z,4.55
2023-01-13T06:32:35.760Z,3.85
2023-01-13T06:35:12.943Z,3.67
2023-01-13T06:37:44.435Z,4.40
2023-01-13T06:40:14.912Z,4.38
2023-01-13T06:43:01.128Z,4.00
2023-01-13T06:45:30.944Z,3.88
2023-01-13T06:48:00.047Z,4.18
2023-01-13T06:50:28.619Z,4.20
2023-01-13T06:52:55.879Z,4.60
2023-01-13T06:55:24.727Z,3.58
2023-01-13T06:57:57.192Z,4.38
2023-01-13T07:00:25.939Z,4.10
2023-01-13T07:02:53.253Z,4.93
2023-01-13T07:05:23.400Z,4.35
2023-01-13T07:07:50.452Z,3.97
2023-01-13T07:10:22.435Z,3.67
2023-01-13T07:13:08.877Z,4.40
2023-01-13T07:15:36.278Z,3.85
2023-01-13T07:18:05.645Z,3.58
2023-01-13T07:20:32.837Z,4.13
2023-01-13T07:23:01.843Z,2.95
2023-01-13T07:25:28.959Z,3.45
2023-01-13T07:27:57.660Z,3.92
2023-01-13T07:30:24.731Z,4.25
2023-01-13T07:32:56.143Z,3.72
2023-01-13T07:35:41.876Z,4.38
2023-01-13T07:38:15.052Z,4.20
2023-01-13T07:40:42.162Z,3.95
2023-01-13T07:43:32.629Z,3.92
2023-01-13T07:46:05.143Z,4.20
2023-01-13T07:48:35.529Z,3.75
2023-01-13T07:51:04.369Z,3.75
2023-01-13T07:53:32.709Z,3.88
2023-01-13T07:56:00.050Z,3.63
2023-01-13T07:58:27.851Z,3.33
2023-01-13T08:00:56.685Z,2.95
2023-01-13T08:03:27.055Z,3.90
2023-01-13T08:05:54.067Z,3.42
2023-01-13T08:08:21.248Z,3.90
2023-01-13T08:10:48.276Z,4.43
2023-01-13T08:13:21.029Z,3.33
2023-01-13T08:15:53.823Z,3.78
2023-01-13T08:18:22.528Z,4.00
2023-01-13T08:20:53.214Z,2.88
2023-01-13T08:23:27.802Z,3.03
2023-01-13T08:25:54.933Z,3.10
2023-01-13T08:28:24.254Z,3.13
2023-01-13T08:31:50.337Z,4.22
2023-01-13T08:34:19.907Z,4.22
2023-01-13T08:36:50.146Z,4.20
2023-01-13T08:39:26.701Z,3.53
2023-01-13T08:41:56.971Z,3.47
2023-01-13T08:44:33.349Z,4.32
2023-01-13T08:47:00.975Z,4.25
2023-01-13T08:49:30.783Z,3.78
2023-01-13T08:51:59.999Z,3.55
2023-01-13T08:54:27.133Z,3.70
2023-01-13T08:57:05.114Z,4.50
2023-01-13T08:59:33.110Z,2.78
2023-01-13T09:02:01.051Z,4.53
2023-01-13T09:04:29.620Z,2.83
2023-01-13T09:07:00.118Z,3.45
2023-01-13T09:09:30.281Z,4.60
2023-01-13T09:12:18.765Z,3.22
2023-01-13T09:14:49.702Z,3.75
2023-01-13T09:17:17.329Z,3.88
2023-01-13T09:19:45.000Z,3.67
2023-01-13T09:22:17.812Z,3.95
2023-01-13T09:24:45.746Z,3.38
2023-01-13T09:27:15.369Z,3.80
2023-01-13T09:29:42.572Z,3.42
2023-01-13T09:32:14.420Z,2.95
2023-01-13T09:35:00.604Z,3.35
2023-01-13T09:37:29.925Z,4.10
2023-01-13T09:39:57.228Z,3.28
2023-01-13T09:43:13.460Z,3.90
2023-01-13T09:45:53.906Z,2.97
2023-01-13T09:48:51.983Z,3.83
2023-01-13T09:51:28.288Z,4.00
2023-01-13T09:54:06.749Z,4.00
2023-01-13T09:56:33.911Z,3.55
2023-01-13T09:59:01.068Z,4.30
2023-01-13T10:01:54.877Z,3.70
2023-01-13T10:04:22.171Z,3.97
2023-01-13T10:06:56.470Z,3.65
2023-01-13T10:09:33.394Z,3.97
2023-01-13T10:12:20.517Z,4.53
2023-01-13T10:14:56.207Z,3.92
2023-01-13T10:17:48.114Z,4.28
2023-01-13T10:20:25.286Z,4.05
2023-01-13T10:23:34.579Z,4.03
2023-01-13T10:26:17.962Z,4.22
2023-01-13T10:28:53.291Z,3.60
2023-01-13T10:31:22.268Z,3.35
2023-01-13T10:33:57.890Z,3.97
2023-01-13T10:36:24.937Z,4.45
2023-01-13T10:38:52.204Z,3.88
2023-01-13T10:41:25.481Z,4.72
2023-01-13T10:46:20.744Z,3.60
2023-01-13T10:48:53.947Z,3.58
2023-01-13T10:51:23.199Z,4.10
2023-01-13T10:53:55.091Z,4.28
2023-01-13T10:56:24.289Z,4.18
2023-01-13T10:58:51.540Z,3.85
2023-01-13T11:01:26.940Z,3.80
2023-01-13T11:03:55.442Z,3.45
2023-01-13T11:06:30.622Z,3.88
2023-01-13T11:08:58.638Z,3.60
2023-01-13T11:11:37.611Z,3.92
2023-01-13T11:14:36.519Z,3.95
2023-01-13T11:17:12.376Z,3.42
2023-01-13T11:19:47.603Z,4.00
2023-01-13T11:22:25.343Z,4.60
2023-01-13T11:25:07.068Z,3.15
2023-01-13T11:28:17.141Z,3.97
2023-01-13T11:30:53.830Z,4.72
2023-01-13T11:33:26.800Z,4.32
2023-01-13T11:36:08.735Z,4.35
2023-01-13T11:38:46.362Z,4.20
2023-01-13T11:41:42.878Z,2.92
2023-01-13T11:44:10.038Z,3.35
2023-01-13T11:46:37.367Z,3.85
2023-01-13T11:49:05.087Z,4.32
2023-01-13T11:51:43.531Z,3.83
2023-01-13T11:54:25.644Z,4.15
2023-01-13T11:57:20.022Z,4.60
2023-01-13T12:00:16.285Z,4.93
2023-01-13T12:03:24.757Z,4.65
2023-01-13T12:06:13.535Z,4.28
2023-01-13T12:09:00.650Z,4.45
2023-01-13T12:12:07.015Z,4.07
2023-01-13T12:14:46.811Z,4.03
2023-01-13T12:17:29.017Z,4.63
2023-01-13T12:19:56.307Z,4.03
2023-01-13T12:22:31.095Z,4.63
2023-01-13T12:25:24.501Z,5.55
2023-01-13T12:28:10.550Z,4.88
2023-01-13T12:30:51.977Z,5.32
2023-01-13T12:33:25.166Z,4.97
2023-01-13T12:36:19.518Z,4.88
2023-01-13T12:38:52.242Z,5.40
2023-01-13T12:41:37.857Z,5.80
2023-01-13T12:44:17.169Z,6.28
2023-01-13T12:46:44.421Z,4.93
2023-01-13T12:49:24.315Z,5.63
2023-01-13T12:51:51.371Z,5.05
2023-01-13T12:54:30.804Z,5.00
2023-01-13T12:56:59.267Z,4.80
2023-01-13T12:59:27.766Z,4.28
2023-01-13T13:02:11.642Z,5.03
2023-01-13T13:04:42.021Z,5.82
2023-01-13T13:07:20.291Z,5.32
2023-01-13T13:09:56.421Z,4.93
2023-01-13T13:13:12.353Z,5.07
2023-01-13T13:15:39.899Z,4.80
2023-01-13T13:18:20.639Z,4.20
2023-01-13T13:20:55.719Z,4.55
2023-01-13T13:23:48.435Z,6.32
2023-01-13T13:26:26.554Z,5.28
2023-01-13T13:29:09.979Z,5.65
2023-01-13T13:32:13.171Z,5.10
2023-01-13T13:35:17.759Z,6.35
2023-01-13T13:38:37.911Z,5.25
2023-01-13T13:41:44.637Z,4.85
2023-01-13T13:44:41.302Z,4.72
2023-01-13T13:47:08.497Z,4.40
2023-01-13T13:49:42.167Z,4.82
2023-01-13T13:52:12.035Z,5.75
2023-01-13T13:54:42.688Z,5.40
2023-01-13T13:57:23.078Z,4.68
2023-01-13T13:59:57.851Z,5.40
2023-01-13T14:02:34.883Z,5.38
2023-01-13T14:05:30.194Z,5.43
2023-01-13T14:08:17.912Z,4.72
2023-01-13T14:10:46.607Z,4.80
2023-01-13T14:13:33.909Z,4.90
2023-01-13T14:16:03.410Z,5.32
2023-01-13T14:18:42.931Z,4.82
2023-01-13T14:21:13.049Z,4.55
2023-01-13T14:23:40.213Z,4.05
2023-01-13T14:26:13.158Z,4.68
2023-01-13T14:28:41.158Z,5.53
2023-01-13T14:31:10.134Z,5.05
2023-01-13T14:33:46.157Z,5.28
2023-01-13T14:36:19.126Z,5.15
2023-01-13T14:38:50.577Z,5.95
2023-01-13T14:41:28.331Z,5.80
2023-01-13T14:43:59.562Z,5.10
2023-01-13T14:46:41.038Z,5.40
2023-01-13T14:49:32.487Z,4.55
2023-01-13T14:52:12.932Z,5.47
2023-01-13T14:54:50.315Z,5.35
2023-01-13T14:57:32.268Z,5.80
2023-01-13T15:00:05.456Z,6.07
2023-01-13T15:05:19.245Z,5.40
2023-01-13T15:08:05.382Z,6.03
2023-01-13T15:10:42.204Z,5.53
2023-01-13T15:13:25.040Z,6.53
2023-01-13T15:15:57.161Z,6.68
2023-01-13T15:18:24.226Z,7.10
2023-01-13T15:20:51.418Z,5.78
2023-01-13T15:23:19.701Z,6.07
2023-01-13T15:25:48.152Z,6.45
2023-01-13T15:28:23.651Z,5.82
2023-01-13T15:30:52.291Z,6.25
2023-01-13T15:33:20.161Z,6.60
2023-01-13T15:35:49.995Z,3.53
2023-01-13T15:38:20.480Z,6.50
2023-01-13T15:40:48.624Z,5.82
2023-01-13T15:43:36.640Z,6.20
2023-01-13T15:46:30.232Z,6.50
2023-01-13T15:48:57.895Z,6.57
2023-01-13T15:51:25.984Z,6.82
2023-01-13T15:53:53.052Z,6.75
2023-01-13T15:56:24.698Z,7.72
2023-01-13T15:58:52.027Z,6.20
2023-01-13T16:01:19.650Z,7.40
2023-01-13T16:03:47.444Z,6.25
2023-01-13T16:06:19.280Z,6.05
2023-01-13T16:08:46.669Z,6.90
2023-01-13T16:11:14.132Z,5.28
2023-01-13T16:13:44.167Z,6.05
2023-01-13T16:16:17.957Z,6.88
2023-01-13T16:18:45.510Z,6.80
2023-01-13T16:21:14.002Z,6.55
2023-01-13T16:23:41.711Z,6.53
2023-01-13T16:26:24.215Z,7.03
2023-01-13T16:28:53.714Z,5.80
2023-01-13T16:31:30.757Z,6.47
2023-01-13T16:33:59.708Z,5.85
2023-01-13T16:36:27.981Z,6.00
2023-01-13T16:38:55.255Z,5.45
2023-01-13T16:41:24.009Z,5.28
2023-01-13T16:43:51.670Z,5.18
2023-01-13T16:46:18.687Z,5.53
2023-01-13T16:48:46.507Z,5.25
2023-01-13T16:51:13.602Z,6.43
2023-01-13T16:53:40.935Z,5.03
2023-01-13T16:56:23.223Z,7.35
2023-01-13T16:58:51.915Z,5.57
2023-01-13T17:01:28.219Z,5.65
2023-01-13T17:03:56.366Z,5.45
2023-01-13T17:06:37.410Z,5.13
2023-01-13T17:09:07.605Z,5.60
2023-01-13T17:11:34.878Z,6.22
2023-01-13T17:14:02.802Z,6.60
2023-01-13T17:16:45.943Z,6.10
2023-01-13T17:19:13.546Z,6.32
2023-01-13T17:21:40.932Z,5.38
2023-01-13T17:24:09.750Z,6.50
2023-01-13T17:26:47.642Z,6.00
2023-01-13T17:29:27.989Z,5.68
2023-01-13T17:31:55.716Z,5.80
2023-01-13T17:34:22.761Z,4.57
2023-01-13T17:36:49.944Z,6.72
2023-01-13T17:39:25.600Z,6.07
2023-01-13T17:41:56.474Z,5.90
2023-01-13T17:44:26.369Z,6.18
2023-01-13T17:46:53.694Z,5.82
2023-01-13T17:49:21.956Z,6.93
2023-01-13T17:51:51.313Z,6.75
2023-01-13T17:54:19.496Z,6.25
2023-01-13T17:56:47.750Z,7.53
2023-01-13T17:59:17.399Z,7.53
2023-01-13T18:01:45.081Z,6.15
2023-01-13T18:04:17.149Z,4.85
2023-01-13T18:06:44.499Z,6.38
2023-01-13T18:09:11.900Z,6.38
2023-01-13T18:11:43.335Z,5.85
2023-01-13T18:14:11.156Z,6.03
2023-01-13T18:16:38.928Z,5.15
2023-01-13T18:19:24.842Z,6.78
2023-01-13T18:22:10.657Z,5.72
2023-01-13T18:24:56.143Z,6.18
2023-01-13T18:27:30.083Z,5.95
2023-01-13T18:29:59.507Z,6.40
2023-01-13T18:32:32.821Z,7.05
2023-01-13T18:35:07.188Z,6.88
2023-01-13T18:37:36.205Z,5.65
2023-01-13T18:40:04.759Z,6.68
2023-01-13T18:42:50.581Z,5.95
2023-01-13T18:45:20.147Z,6.50
2023-01-13T18:47:47.298Z,5.45
2023-01-13T18:50:14.369Z,4.47
2023-01-13T18:52:41.783Z,5.80
2023-01-13T18:55:09.437Z,5.95
2023-01-13T18:57:39.323Z,5.50
2023-01-13T19:00:09.188Z,6.60
2023-01-13T19:02:36.539Z,5.43
2023-01-13T19:05:04.560Z,6.53
2023-01-13T19:07:34.721Z,5.82
2023-01-13T19:10:04.454Z,6.05
2023-01-13T19:12:31.839Z,6.40
2023-01-13T19:14:59.830Z,5.15
2023-01-13T19:17:33.510Z,5.93
2023-01-13T19:20:04.150Z,5.82
2023-01-13T19:22:35.432Z,5.13
2023-01-13T19:25:03.517Z,7.43
2023-01-13T19:27:38.175Z,5.68
2023-01-13T19:30:06.190Z,6.03
2023-01-13T19:32:39.830Z,6.10
2023-01-13T19:35:07.406Z,6.13
2023-01-13T19:37:37.056Z,5.40
2023-01-13T19:40:09.492Z,7.47
2023-01-13T19:42:55.962Z,6.47
2023-01-13T19:45:37.294Z,5.70
2023-01-13T19:48:05.917Z,6.10
2023-01-13T19:50:40.489Z,5.57
2023-01-13T19:53:08.276Z,6.72
2023-01-13T19:55:35.653Z,5.38
2023-01-13T19:58:03.746Z,5.50
2023-01-13T20:00:30.918Z,5.53
2023-01-13T20:03:03.285Z,5.95
2023-01-13T20:05:30.764Z,5.53
2023-01-13T20:07:57.883Z,4.25
2023-01-13T20:10:25.330Z,6.13
2023-01-13T20:12:52.507Z,6.30
2023-01-13T20:15:19.653Z,5.25
2023-01-13T20:17:46.857Z,6.72
2023-01-13T20:20:15.907Z,5.72
2023-01-13T20:22:45.309Z,5.97
2023-01-13T20:25:18.505Z,5.78
2023-01-13T20:27:47.304Z,6.88
2023-01-13T20:30:14.794Z,6.15
2023-01-13T20:32:43.240Z,5.60
2023-01-13T20:35:11.062Z,5.28
2023-01-13T20:37:39.079Z,6.80
2023-01-13T20:40:07.869Z,7.32
2023-01-13T20:42:44.786Z,6.95
2023-01-13T20:45:24.574Z,6.72
2023-01-13T20:47:51.896Z,7.05
2023-01-13T20:50:18.979Z,5.93
2023-01-13T20:52:46.945Z,6.45
2023-01-13T20:55:14.593Z,6.32
2023-01-13T20:57:42.018Z,6.00
2023-01-13T21:00:12.550Z,6.82
2023-01-13T21:02:41.198Z,6.03
2023-01-13T21:05:09.421Z,6.05
2023-01-13T21:07:38.641Z,7.10
2023-01-13T21:10:07.342Z,5.95
2023-01-13T21:12:52.884Z,5.55
2023-01-13T21:15:22.135Z,6.25
2023-01-13T21:18:10.061Z,6.97
2023-01-13T21:20:39.391Z,7.50
2023-01-13T21:23:07.828Z,7.18
2023-01-13T21:25:37.301Z,6.72
2023-01-13T21:28:06.074Z,7.90
2023-01-13T21:30:33.945Z,7.13
2023-01-13T21:33:01.552Z,6.70
2023-01-13T21:35:28.660Z,7.07
2023-01-13T21:37:59.957Z,6.50
2023-01-13T21:40:30.483Z,6.95
2023-01-13T21:43:16.137Z,5.95
2023-01-13T21:46:04.225Z,7.22
2023-01-13T21:48:43.081Z,7.22
2023-01-13T21:51:12.463Z,6.47
2023-01-13T21:53:39.643Z,7.10
2023-01-13T21:56:07.045Z,7.05
2023-01-13T21:58:34.088Z,6.07
2023-01-13T22:01:04.441Z,6.05
2023-01-13T22:03:52.127Z,6.55
2023-01-13T22:06:23.943Z,6.28
2023-01-13T22:08:51.066Z,6.93
2023-01-13T22:11:18.218Z,7.82
2023-01-13T22:14:06.962Z,7.20
2023-01-13T22:16:37.882Z,7.43
2023-01-13T22:19:06.783Z,7.32
2023-01-13T22:21:35.029Z,7.00
2023-01-13T22:24:02.783Z,7.30
2023-01-13T22:26:29.981Z,7.10
2023-01-13T22:28:57.186Z,7.10
2023-01-13T22:31:24.521Z,7.38
2023-01-13T22:33:55.744Z,7.55
2023-01-13T22:36:26.785Z,6.43
2023-01-13T22:38:56.452Z,5.40
2023-01-13T22:41:24.047Z,6.80
2023-01-13T22:43:52.030Z,6.10
2023-01-13T22:46:19.263Z,5.88
2023-01-13T22:48:48.604Z,4.65
2023-01-13T22:51:18.772Z,5.15
2023-01-13T22:53:48.608Z,6.05
2023-01-13T22:56:22.055Z,6.93
2023-01-13T22:58:56.047Z,5.80
2023-01-13T23:01:25.030Z,7.13
2023-01-13T23:03:52.682Z,6.30
2023-01-13T23:06:21.704Z,5.20
2023-01-13T23:08:49.199Z,5.57
2023-01-13T23:11:18.328Z,5.15
2023-01-13T23:13:46.242Z,5.80
2023-01-13T23:16:18.727Z,6.43
2023-01-13T23:18:48.115Z,5.03
2023-01-13T23:21:18.894Z,6.60
2023-01-13T23:23:46.636Z,6.43
2023-01-13T23:26:14.275Z,6.88
2023-01-13T23:28:41.343Z,5.72
2023-01-13T23:31:10.496Z,6.07
2023-01-13T23:33:38.059Z,6.57
2023-01-13T23:36:07.708Z,6.47
2023-01-13T23:38:35.115Z,6.55
2023-01-13T23:41:06.033Z,6.38
2023-01-13T23:43:33.093Z,6.95
2023-01-13T23:46:05.369Z,6.95
2023-01-13T23:48:33.069Z,6.47
2023-01-13T23:51:01.765Z,7.03
2023-01-13T23:53:40.237Z,6.78
2023-01-13T23:56:11.906Z,7.53
2023-01-13T23:58:39.017Z,6.00
